Overview Statistics Trail Chart Weather Telemetry Raw packets
 

This is the latest recevied weather packets stored in our database for station/object IN3MWE-10. If no packets are shown the sender has not sent any weather packets the latest 10 day(s).

<< 30 31 32 33 34 35 36 >>
Time Temp. Humidity Pressure Rain* Wind** Luminosity Snow
1787952024 22.22° C 100% 978 hPa - - - -
1787951124 21.67° C 100% 977.9 hPa - - - -
1787950224 21.67° C 100% 978 hPa - - - -
1787949323 22.22° C 100% 978.1 hPa - - - -
1787948423 22.22° C 100% 978.6 hPa - - - -
1787947523 22.78° C 100% 978.6 hPa - - - -
1787946629 22.22° C 100% 977.7 hPa - - - -
1787945723 22.78° C 100% 978 hPa - - - -
1787944823 22.78° C 100% 977.8 hPa - - - -
1787943923 22.78° C 100% 978.3 hPa - - - -
1787943022 22.78° C 100% 977.7 hPa - - - -
1787942122 23.89° C 100% 978.5 hPa - - - -
1787941222 25.56° C 90% 978.3 hPa - - - -
1787940322 25.56° C 86% 977.8 hPa - - - -
1787939422 26.11° C 80% 977.1 hPa - - - -
1787938522 27.78° C 71% 977.1 hPa - - - -
1787937622 27.78° C 59% 976.8 hPa - - - -
1787936722 27.78° C 55% 975.7 hPa - - - -
1787935821 29.44° C 46% 975.3 hPa - - - -
1787934921 30° C 42% 976 hPa - - - -
1787934021 30° C 41% 975.9 hPa - - - -
1787933121 30.56° C 40% 975.4 hPa - - - -
1787932221 31.11° C 40% 974.6 hPa - - - -
1787931321 31.67° C 37% 975.2 hPa - - - -
1787930421 31.67° C 35% 975.6 hPa - - - -

* Rain since midnight (hover to see other rain measurements)
** Current wind speed in m/s (hover to see current wind gust speed)